Time;durP1;ratioP1;P1;durP2;ratioP2;P2;SDS_P1;SDS_P2;PMS_P1;PMS_P2;Temp;Humidity;BMP_temperature;BMP_pressure;BME280_temperature;BME280_humidity;BME280_pressure;Samples;Min_cycle;Max_cycle;Signal;HPM_P1;HPM_P2
2021/12/30 00:00:14;;;;;;;2.20;2.00;;;;;;;8.93;100.00;95632.66;1009998;29;20021;-66
2021/12/30 00:00:51;;;;;;;1.88;1.67;;;;;;;8.94;100.00;95623.75;1008694;29;20495;-65
2021/12/30 00:01:25;;;;;;;1.80;1.70;;;;;;;8.94;100.00;95621.91;1010354;29;20312;-66
2021/12/30 00:01:56;;;;;;;2.13;1.92;;;;;;;8.96;100.00;95624.28;1010430;29;20273;-66
2021/12/30 00:02:31;;;;;;;2.70;2.50;;;;;;;8.89;100.00;95628.97;1013348;29;20273;-64
2021/12/30 00:03:02;;;;;;;2.28;2.08;;;;;;;8.95;100.00;95631.34;1014491;29;20650;-65
2021/12/30 00:03:32;;;;;;;2.30;2.00;;;;;;;8.96;100.00;95632.13;1014137;29;20357;-65
2021/12/30 00:04:03;;;;;;;2.60;2.05;;;;;;;8.98;100.00;95638.66;1013990;29;20024;-65
2021/12/30 00:04:33;;;;;;;2.58;2.13;;;;;;;8.98;100.00;95640.50;1011365;29;20028;-65
2021/12/30 00:05:04;;;;;;;2.30;1.77;;;;;;;8.99;100.00;95636.88;1014392;29;20028;-66
2021/12/30 00:05:35;;;;;;;2.38;2.10;;;;;;;9.01;100.00;95640.00;1015713;29;20036;-65
2021/12/30 00:06:06;;;;;;;2.20;1.98;;;;;;;8.98;100.00;95640.50;1018220;29;20047;-65
2021/12/30 00:06:40;;;;;;;1.83;1.65;;;;;;;8.98;100.00;95648.34;1010405;29;20103;-65
2021/12/30 00:07:11;;;;;;;1.88;1.67;;;;;;;8.84;100.00;95626.31;1010178;29;21035;-65
2021/12/30 00:07:41;;;;;;;2.42;1.85;;;;;;;8.96;100.00;95642.59;1010287;29;20276;-66
2021/12/30 00:08:12;;;;;;;2.33;2.00;;;;;;;8.93;100.00;95640.50;1014370;29;20071;-65
2021/12/30 00:08:43;;;;;;;2.03;1.80;;;;;;;8.95;100.00;95644.44;1014542;29;20103;-65
2021/12/30 00:09:18;;;;;;;2.83;2.20;;;;;;;8.94;100.00;95642.06;1010571;29;20034;-63
2021/12/30 00:09:48;;;;;;;1.70;1.48;;;;;;;8.96;100.00;95647.84;1010156;29;20021;-66
2021/12/30 00:10:22;;;;;;;2.10;1.90;;;;;;;8.95;100.00;95641.81;1010028;29;20386;-64
2021/12/30 00:10:52;;;;;;;2.00;1.80;;;;;;;8.84;100.00;95618.47;1006369;29;20076;-65
2021/12/30 00:11:23;;;;;;;2.22;2.03;;;;;;;8.93;100.00;95632.66;1006681;29;20278;-65
2021/12/30 00:11:53;;;;;;;2.88;1.90;;;;;;;9.00;100.00;95645.50;1006518;29;20495;-65
2021/12/30 00:12:24;;;;;;;2.60;1.67;;;;;;;9.02;100.00;95652.06;1006187;29;20036;-66
2021/12/30 00:12:54;;;;;;;1.70;1.52;;;;;;;8.97;100.00;95642.34;1002924;29;20037;-65
2021/12/30 00:13:25;;;;;;;1.83;1.60;;;;;;;9.04;100.00;95655.19;1010565;29;20033;-66
2021/12/30 00:13:56;;;;;;;1.63;1.50;;;;;;;9.03;100.00;95652.84;1005524;29;20025;-66
2021/12/30 00:14:26;;;;;;;1.92;1.67;;;;;;;9.05;100.00;95642.88;1010256;29;20032;-63
2021/12/30 00:14:57;;;;;;;2.03;1.85;;;;;;;9.02;100.00;95646.84;1014501;29;20028;-65
2021/12/30 00:15:27;;;;;;;2.00;1.80;;;;;;;9.02;100.00;95652.06;1014565;29;20550;-65
2021/12/30 00:15:58;;;;;;;2.78;1.45;;;;;;;9.05;100.00;95651.53;1013941;29;20035;-66
2021/12/30 00:16:28;;;;;;;1.90;1.48;;;;;;;9.06;100.00;95657.56;1018253;29;20035;-65
2021/12/30 00:16:58;;;;;;;2.72;1.63;;;;;;;9.06;100.00;95645.28;1018358;29;20445;-66
2021/12/30 00:17:29;;;;;;;1.75;1.60;;;;;;;9.07;100.00;95653.91;1015919;29;20581;-65
2021/12/30 00:17:59;;;;;;;1.63;1.52;;;;;;;8.96;100.00;95632.13;1010410;29;20020;-65
2021/12/30 00:18:30;;;;;;;2.95;1.70;;;;;;;9.09;100.00;95663.09;1010445;29;20468;-65
2021/12/30 00:19:00;;;;;;;1.98;1.48;;;;;;;9.13;100.00;95658.91;1006783;29;20527;-66
2021/12/30 00:19:31;;;;;;;2.00;1.80;;;;;;;9.08;100.00;95656.25;1010552;29;20029;-66
2021/12/30 00:20:07;;;;;;;2.05;1.40;;;;;;;9.09;100.00;95657.84;1010047;29;20020;-66
2021/12/30 00:20:37;;;;;;;2.40;1.73;;;;;;;9.11;100.00;95653.13;1010428;29;20678;-65
2021/12/30 00:21:08;;;;;;;1.35;1.25;;;;;;;9.10;100.00;95658.63;1007881;29;20269;-65
2021/12/30 00:21:39;;;;;;;1.67;1.58;;;;;;;9.13;100.00;95652.91;1011204;29;20017;-65
2021/12/30 00:22:12;;;;;;;1.50;1.40;;;;;;;9.15;100.00;95667.31;1010375;29;20025;-66
2021/12/30 00:22:43;;;;;;;2.55;1.77;;;;;;;9.15;100.00;95662.06;1000811;29;20050;-66
2021/12/30 00:23:13;;;;;;;1.75;1.65;;;;;;;9.17;100.00;95667.03;1003286;29;20262;-65
2021/12/30 00:23:44;;;;;;;1.98;1.23;;;;;;;9.19;100.00;95657.91;1007922;29;20021;-66
2021/12/30 00:24:14;;;;;;;1.48;1.38;;;;;;;9.19;100.00;95663.13;1009979;29;20020;-65
2021/12/30 00:24:45;;;;;;;1.50;1.35;;;;;;;9.18;100.00;95661.53;1010181;29;20032;-65
2021/12/30 00:25:15;;;;;;;2.67;1.92;;;;;;;9.18;100.00;95650.28;1010541;29;20021;-64
2021/12/30 00:25:48;;;;;;;1.85;1.60;;;;;;;9.13;100.00;95648.44;1010372;29;20099;-66
2021/12/30 00:26:18;;;;;;;1.67;1.58;;;;;;;9.17;100.00;95657.34;1014352;29;20825;-66
2021/12/30 00:26:49;;;;;;;2.63;1.80;;;;;;;9.09;100.00;95652.63;1004990;29;20301;-65
2021/12/30 00:27:19;;;;;;;1.90;1.60;;;;;;;9.14;100.00;95655.25;1006695;29;20050;-65
2021/12/30 00:27:50;;;;;;;2.75;1.70;;;;;;;9.15;100.00;95659.47;1001917;29;20049;-64
2021/12/30 00:28:24;;;;;;;1.73;1.63;;;;;;;9.15;100.00;95654.22;1014249;29;20502;-65
2021/12/30 00:28:54;;;;;;;1.63;1.40;;;;;;;9.16;100.00;95650.56;1015473;29;20047;-65
2021/12/30 00:29:25;;;;;;;1.60;1.50;;;;;;;9.18;100.00;95655.53;1017744;29;20268;-63
2021/12/30 00:29:55;;;;;;;1.40;1.30;;;;;;;9.18;100.00;95656.31;1013697;29;20055;-63
2021/12/30 00:30:25;;;;;;;1.70;1.58;;;;;;;9.21;100.00;95658.41;1008786;29;20403;-66
2021/12/30 00:30:56;;;;;;;1.88;1.63;;;;;;;9.19;100.00;95662.34;1010025;29;21569;-65
2021/12/30 00:31:26;;;;;;;1.33;1.23;;;;;;;9.20;100.00;95659.47;1013281;29;20455;-66
2021/12/30 00:31:57;;;;;;;1.52;1.42;;;;;;;9.20;100.00;95662.09;1007857;29;20611;-65
2021/12/30 00:32:27;;;;;;;1.67;1.50;;;;;;;9.23;100.00;95660.00;1006511;29;20135;-65
2021/12/30 00:32:58;;;;;;;1.42;1.30;;;;;;;9.24;100.00;95658.97;1006315;29;20126;-65
2021/12/30 00:33:30;;;;;;;2.15;1.77;;;;;;;9.23;100.00;95667.88;1006740;29;20041;-65
2021/12/30 00:34:01;;;;;;;1.98;1.50;;;;;;;9.20;100.00;95672.56;1010713;29;20107;-66
2021/12/30 00:34:31;;;;;;;1.70;1.60;;;;;;;9.03;100.00;95647.63;1014641;29;20312;-66
2021/12/30 00:35:02;;;;;;;1.50;1.38;;;;;;;9.18;100.00;95661.53;1018638;29;20023;-65
2021/12/30 00:35:34;;;;;;;1.70;1.25;;;;;;;9.24;100.00;95666.81;1018341;29;20020;-65
2021/12/30 00:36:06;;;;;;;1.88;1.60;;;;;;;9.23;100.00;95673.09;1013006;29;20265;-64
2021/12/30 00:36:37;;;;;;;2.05;1.02;;;;;;;9.24;100.00;95674.66;1010215;29;20786;-66
2021/12/30 00:37:07;;;;;;;1.33;1.23;;;;;;;9.21;100.00;95668.09;1007189;29;20277;-66
2021/12/30 00:37:37;;;;;;;1.38;1.27;;;;;;;9.24;100.00;95674.66;1007658;29;20025;-64
2021/12/30 00:38:08;;;;;;;1.02;0.90;;;;;;;9.23;100.00;95662.63;1014341;29;20032;-65
2021/12/30 00:38:39;;;;;;;1.33;1.20;;;;;;;9.28;100.00;95666.03;1013852;29;20036;-61
2021/12/30 00:39:10;;;;;;;1.38;1.27;;;;;;;9.21;100.00;95674.13;1006955;29;20028;-65
2021/12/30 00:39:40;;;;;;;1.27;1.17;;;;;;;9.23;100.00;95678.34;1010261;29;20307;-65
2021/12/30 00:40:11;;;;;;;1.05;0.95;;;;;;;9.19;100.00;95672.81;1012681;29;20024;-65
2021/12/30 00:40:42;;;;;;;1.48;1.08;;;;;;;9.10;100.00;95654.19;1012728;29;20024;-65
2021/12/30 00:41:12;;;;;;;1.30;1.00;;;;;;;9.23;100.00;95676.50;1018424;29;20020;-65
2021/12/30 00:41:42;;;;;;;1.25;1.15;;;;;;;9.24;100.00;95670.22;1016048;29;20019;-65
2021/12/30 00:42:13;;;;;;;1.13;1.00;;;;;;;9.26;100.00;95678.59;1011863;29;20029;-67
2021/12/30 00:42:43;;;;;;;2.50;1.60;;;;;;;9.23;100.00;95678.34;1010310;29;20611;-67
2021/12/30 00:43:14;;;;;;;1.45;1.02;;;;;;;9.28;100.00;95673.09;1010392;29;20017;-65
2021/12/30 00:43:44;;;;;;;1.77;1.15;;;;;;;9.27;100.00;95674.16;1009416;29;20032;-66
2021/12/30 00:44:15;;;;;;;1.65;1.00;;;;;;;9.21;100.00;95670.72;1010637;29;20402;-66
2021/12/30 00:44:45;;;;;;;1.20;1.10;;;;;;;9.26;100.00;95683.84;1015330;29;20077;-65
2021/12/30 00:45:16;;;;;;;1.02;0.93;;;;;;;9.18;100.00;95666.78;1016459;29;20024;-65
2021/12/30 00:45:46;;;;;;;1.65;1.02;;;;;;;9.26;100.00;95678.59;1014375;29;20028;-65
2021/12/30 00:46:17;;;;;;;2.30;1.10;;;;;;;9.30;100.00;95674.44;1014428;29;20083;-66
2021/12/30 00:46:47;;;;;;;1.17;1.10;;;;;;;9.28;100.00;95668.66;1014292;29;20016;-66
2021/12/30 00:47:18;;;;;;;1.13;0.95;;;;;;;9.30;100.00;95673.66;1014291;29;20024;-65
2021/12/30 00:47:48;;;;;;;0.80;0.80;;;;;;;9.30;100.00;95682.28;1018338;29;20413;-66
2021/12/30 00:48:19;;;;;;;1.20;1.10;;;;;;;9.30;100.00;95684.13;1010622;29;20112;-61
2021/12/30 00:48:49;;;;;;;0.80;0.80;;;;;;;9.29;100.00;95680.72;1011761;29;20592;-65
2021/12/30 00:49:19;;;;;;;1.10;1.00;;;;;;;9.29;100.00;95682.53;1014338;29;20028;-66
2021/12/30 00:49:52;;;;;;;1.10;1.00;;;;;;;9.33;100.00;95675.75;1010308;29;20037;-65
2021/12/30 00:50:23;;;;;;;1.30;1.20;;;;;;;9.32;100.00;95677.59;1013511;29;20028;-66
2021/12/30 00:50:53;;;;;;;1.58;1.30;;;;;;;9.30;100.00;95679.66;1018347;29;20264;-66
2021/12/30 00:51:24;;;;;;;1.50;1.40;;;;;;;9.26;100.00;95688.31;1018107;29;20271;-62
2021/12/30 00:51:55;;;;;;;4.20;1.23;;;;;;;9.29;100.00;95677.28;1017877;29;20027;-66
2021/12/30 00:52:26;;;;;;;1.52;1.42;;;;;;;9.27;100.00;95680.19;1006667;29;20037;-66
2021/12/30 00:52:58;;;;;;;2.15;1.02;;;;;;;9.31;100.00;95685.69;1012838;29;20273;-67
2021/12/30 00:53:28;;;;;;;5.65;1.40;;;;;;;9.31;100.00;95680.44;1014087;29;20124;-65
2021/12/30 00:53:59;;;;;;;1.27;1.17;;;;;;;9.30;100.00;95686.75;1014645;29;20272;-65
2021/12/30 00:54:29;;;;;;;1.38;1.27;;;;;;;9.28;100.00;95686.97;1018307;29;20020;-66
2021/12/30 00:55:00;;;;;;;1.02;1.00;;;;;;;9.30;100.00;95686.75;1014422;29;20027;-67
2021/12/30 00:55:33;;;;;;;1.15;1.02;;;;;;;9.37;100.00;95689.91;1010114;29;20498;-66
2021/12/30 00:56:04;;;;;;;1.75;1.10;;;;;;;9.34;100.00;95685.19;1010973;29;20029;-64
2021/12/30 00:56:34;;;;;;;1.08;1.02;;;;;;;9.17;100.00;95664.44;1014971;29;20272;-66
2021/12/30 00:57:05;;;;;;;1.30;1.20;;;;;;;9.32;100.00;95687.25;1010298;29;20025;-65
2021/12/30 00:57:35;;;;;;;1.00;0.90;;;;;;;9.33;100.00;95688.84;1014804;29;20032;-65
2021/12/30 00:58:06;;;;;;;1.30;1.20;;;;;;;9.29;100.00;95680.72;1014207;29;20021;-66
2021/12/30 00:58:36;;;;;;;1.30;1.20;;;;;;;9.31;100.00;95691.72;1013949;29;20051;-66
2021/12/30 00:59:07;;;;;;;1.30;1.20;;;;;;;9.33;100.00;95694.09;1014440;29;20088;-66
2021/12/30 00:59:37;;;;;;;2.15;1.30;;;;;;;9.34;100.00;95695.66;1014267;29;20139;-65
2021/12/30 01:00:11;;;;;;;1.60;1.50;;;;;;;9.32;100.00;95695.09;1017467;29;20028;-62
2021/12/30 01:00:43;;;;;;;1.08;1.00;;;;;;;9.34;100.00;95693.03;1013878;29;20590;-66
2021/12/30 01:01:13;;;;;;;1.10;1.00;;;;;;;9.34;100.00;95698.28;1014286;29;20359;-65
2021/12/30 01:01:44;;;;;;;1.45;1.00;;;;;;;9.34;100.00;95693.03;1014244;29;20271;-64
2021/12/30 01:02:14;;;;;;;3.17;1.33;;;;;;;9.37;100.00;95695.94;1011417;29;20108;-62
2021/12/30 01:02:45;;;;;;;1.30;1.20;;;;;;;9.34;100.00;95685.19;1010508;29;20028;-65
2021/12/30 01:03:15;;;;;;;2.05;0.80;;;;;;;9.39;100.00;95693.06;1014276;29;20020;-65
2021/12/30 01:03:46;;;;;;;1.00;1.00;;;;;;;9.45;100.00;95705.13;1009797;29;20100;-65
2021/12/30 01:04:18;;;;;;;1.45;0.90;;;;;;;9.43;100.00;95702.78;1010325;29;20024;-63
2021/12/30 01:04:49;;;;;;;1.33;1.00;;;;;;;9.40;100.00;95699.88;1014528;29;20051;-64
2021/12/30 01:05:20;;;;;;;1.30;0.85;;;;;;;9.45;100.00;95707.75;1014119;29;21150;-66
2021/12/30 01:05:50;;;;;;;0.98;0.93;;;;;;;9.43;100.00;95704.59;1006176;29;20122;-65
2021/12/30 01:06:23;;;;;;;1.30;1.20;;;;;;;9.44;100.00;95716.66;1010448;29;20064;-65
2021/12/30 01:06:54;;;;;;;1.70;0.88;;;;;;;9.42;100.00;95708.25;1010984;29;20534;-66
2021/12/30 01:07:24;;;;;;;1.00;0.90;;;;;;;9.41;100.00;95706.69;1018054;29;20268;-65
2021/12/30 01:07:56;;;;;;;2.45;0.80;;;;;;;9.43;100.00;95712.47;1021738;29;20027;-66
2021/12/30 01:08:26;;;;;;;0.80;0.80;;;;;;;9.43;100.00;95717.69;1014351;29;20528;-64
2021/12/30 01:08:57;;;;;;;1.00;1.00;;;;;;;9.44;100.00;95719.28;1005725;29;20276;-66
2021/12/30 01:09:28;;;;;;;1.20;1.00;;;;;;;9.40;100.00;95710.34;1009876;29;20027;-66
2021/12/30 01:09:59;;;;;;;2.28;1.00;;;;;;;9.38;100.00;95713.22;1011515;29;20052;-66
2021/12/30 01:10:29;;;;;;;0.90;0.90;;;;;;;9.37;100.00;95711.66;1009757;29;20020;-66
2021/12/30 01:11:04;;;;;;;1.00;0.82;;;;;;;9.34;100.00;95703.50;1003238;29;20824;-65
2021/12/30 01:11:35;;;;;;;0.90;0.90;;;;;;;9.41;100.00;95717.16;1010196;29;20369;-64
2021/12/30 01:12:06;;;;;;;0.60;0.60;;;;;;;9.43;100.00;95720.31;1009815;29;21067;-66
2021/12/30 01:12:36;;;;;;;0.50;0.50;;;;;;;9.46;100.00;95714.56;1013855;29;20020;-66
2021/12/30 01:13:10;;;;;;;1.45;0.73;;;;;;;9.49;100.00;95724.53;1010234;29;20025;-66
2021/12/30 01:13:44;;;;;;;1.15;0.90;;;;;;;9.48;100.00;95725.56;1008518;29;20012;-65
2021/12/30 01:14:21;;;;;;;1.52;1.00;;;;;;;9.50;100.00;95726.09;1015180;29;20298;-66
2021/12/30 01:14:52;;;;;;;1.23;0.80;;;;;;;9.50;100.00;95726.09;1010308;29;20280;-66
2021/12/30 01:15:32;;;;;;;1.23;0.80;;;;;;;9.51;100.00;95727.69;1014338;29;20774;-65
2021/12/30 01:16:05;;;;;;;0.95;0.80;;;;;;;9.51;100.00;95732.91;1011460;29;20032;-65
2021/12/30 01:16:42;;;;;;;1.23;0.70;;;;;;;9.47;100.00;95726.63;1021880;29;20358;-64
2021/12/30 01:17:19;;;;;;;0.70;0.70;;;;;;;9.54;100.00;95727.16;1022125;29;20314;-65
2021/12/30 01:17:59;;;;;;;1.10;1.00;;;;;;;9.54;100.00;95727.16;1018611;29;20267;-64
2021/12/30 01:18:56;;;;;;;0.63;0.63;;;;;;;9.54;100.00;95731.63;1013969;29;20338;-66
2021/12/30 01:19:42;;;;;;;2.45;1.10;;;;;;;9.49;100.00;95727.16;1016659;29;20156;-67
2021/12/30 01:20:14;;;;;;;0.60;0.60;;;;;;;9.53;100.00;95733.47;1014998;29;20275;-65
2021/12/30 01:20:44;;;;;;;0.60;0.60;;;;;;;9.53;100.00;95730.06;1014520;29;20261;-63
2021/12/30 01:21:15;;;;;;;0.70;0.70;;;;;;;9.43;100.00;95725.56;1014556;29;20646;-66
2021/12/30 01:21:45;;;;;;;0.77;0.77;;;;;;;9.50;100.00;95733.19;1014091;29;20450;-67
2021/12/30 01:22:23;;;;;;;0.65;0.65;;;;;;;9.32;100.00;95708.19;1006521;29;20407;-64
2021/12/30 01:22:54;;;;;;;0.73;0.65;;;;;;;9.45;100.00;95732.09;1006314;29;20028;-65
2021/12/30 01:23:25;;;;;;;1.85;1.08;;;;;;;9.46;100.00;95735.53;1010178;29;20276;-67
2021/12/30 01:23:55;;;;;;;0.68;0.68;;;;;;;9.53;100.00;95736.06;1014129;29;20024;-64
2021/12/30 01:24:26;;;;;;;0.77;0.65;;;;;;;9.53;100.00;95738.69;1012210;29;20024;-65
2021/12/30 01:24:56;;;;;;;2.05;0.90;;;;;;;9.55;100.00;95733.97;1006409;29;20032;-65
2021/12/30 01:25:26;;;;;;;0.88;0.88;;;;;;;9.53;100.00;95746.56;1002626;29;20034;-66
2021/12/30 01:25:57;;;;;;;0.60;0.60;;;;;;;9.56;100.00;95740.03;1007515;29;20029;-65
2021/12/30 01:26:27;;;;;;;0.70;0.70;;;;;;;9.56;100.00;95745.25;1010490;29;20044;-66
2021/12/30 01:26:58;;;;;;;0.68;0.68;;;;;;;9.54;100.00;95737.66;1006238;29;20329;-66
2021/12/30 01:27:28;;;;;;;1.85;0.75;;;;;;;9.51;100.00;95732.91;1014295;29;20032;-65
2021/12/30 01:27:59;;;;;;;1.63;0.82;;;;;;;9.54;100.00;95740.25;1015165;29;20031;-65
2021/12/30 01:28:29;;;;;;;0.60;0.60;;;;;;;9.54;100.00;95745.50;1014125;29;20079;-66
2021/12/30 01:29:02;;;;;;;0.90;0.90;;;;;;;9.56;100.00;95746.03;1010129;29;20032;-62
2021/12/30 01:29:33;;;;;;;0.70;0.70;;;;;;;9.60;100.00;95754.19;1012205;29;20088;-65
2021/12/30 01:30:04;;;;;;;0.68;0.68;;;;;;;9.58;100.00;95751.81;1009083;29;20277;-62
2021/12/30 01:30:35;;;;;;;0.70;0.70;;;;;;;9.49;100.00;95737.63;1006282;29;20139;-64
2021/12/30 01:31:05;;;;;;;0.88;0.80;;;;;;;9.52;100.00;95752.03;1010036;29;20350;-66
2021/12/30 01:31:36;;;;;;;0.60;0.60;;;;;;;9.57;100.00;95746.84;1010209;29;20044;-64
2021/12/30 01:32:06;;;;;;;0.93;0.68;;;;;;;9.54;100.00;95745.50;1014224;29;20055;-66
2021/12/30 01:32:37;;;;;;;0.65;0.65;;;;;;;9.52;100.00;95738.94;1006779;29;20113;-65
2021/12/30 01:33:07;;;;;;;0.95;0.70;;;;;;;9.56;100.00;95753.91;1017818;29;20103;-65
2021/12/30 01:33:43;;;;;;;0.68;0.68;;;;;;;9.55;100.00;95762.78;1014293;29;20039;-65
2021/12/30 01:34:13;;;;;;;0.88;0.75;;;;;;;9.53;100.00;95754.41;1015012;29;20032;-66
2021/12/30 01:34:44;;;;;;;0.77;0.75;;;;;;;9.53;100.00;95759.66;1021327;28;20617;-63
2021/12/30 01:35:22;;;;;;;1.20;0.57;;;;;;;9.57;100.00;95752.84;1010145;29;20228;-66
2021/12/30 01:35:52;;;;;;;0.52;0.52;;;;;;;9.57;100.00;95752.06;1013931;29;20478;-67
2021/12/30 01:36:26;;;;;;;0.50;0.50;;;;;;;9.56;100.00;95750.50;1013280;29;20968;-66
2021/12/30 01:36:59;;;;;;;0.47;0.47;;;;;;;9.54;100.00;95755.97;1011390;29;20491;-64
2021/12/30 01:37:30;;;;;;;1.10;0.60;;;;;;;9.59;100.00;95747.34;1006472;29;20341;-70
2021/12/30 01:38:01;;;;;;;1.90;0.60;;;;;;;9.59;100.00;95755.22;1006130;29;20269;-65
2021/12/30 01:38:32;;;;;;;0.90;0.60;;;;;;;9.54;100.00;95744.72;1008390;29;20017;-66
2021/12/30 01:39:02;;;;;;;0.50;0.50;;;;;;;9.60;100.00;95751.56;1010249;29;20271;-66
2021/12/30 01:39:37;;;;;;;1.70;0.60;;;;;;;9.61;100.00;95753.91;1017939;29;20035;-66
2021/12/30 01:40:11;;;;;;;0.52;0.52;;;;;;;9.59;100.00;95755.22;1017251;29;20012;-62
2021/12/30 01:40:42;;;;;;;0.50;0.50;;;;;;;9.58;100.00;95748.41;1014040;29;20328;-67
2021/12/30 01:41:13;;;;;;;1.75;0.65;;;;;;;9.52;100.00;95750.19;1014224;29;20264;-65
2021/12/30 01:41:44;;;;;;;0.93;0.88;;;;;;;9.59;100.00;95755.22;1006964;29;20278;-65
2021/12/30 01:42:17;;;;;;;0.70;0.70;;;;;;;9.57;100.00;95758.09;1007002;29;20029;-66
2021/12/30 01:42:51;;;;;;;1.73;0.70;;;;;;;9.57;100.00;95760.72;1014894;29;20809;-66
2021/12/30 01:43:22;;;;;;;0.40;0.40;;;;;;;9.63;100.00;95767.56;1014426;29;20028;-66
2021/12/30 01:43:52;;;;;;;0.68;0.57;;;;;;;9.59;100.00;95761.25;1011194;29;20253;-66
2021/12/30 01:44:23;;;;;;;0.60;0.60;;;;;;;9.61;100.00;95766.22;1010972;29;20061;-66
2021/12/30 01:44:53;;;;;;;0.52;0.50;;;;;;;9.66;100.00;95767.03;1010763;29;20038;-66
2021/12/30 01:45:23;;;;;;;0.60;0.60;;;;;;;9.69;100.00;95760.50;1010714;29;20107;-66
2021/12/30 01:45:54;;;;;;;0.68;0.52;;;;;;;9.60;100.00;95754.97;1014712;29;20806;-66
2021/12/30 01:46:25;;;;;;;1.83;0.40;;;;;;;9.70;100.00;95771.78;1011285;29;20151;-66
2021/12/30 01:46:55;;;;;;;0.77;0.60;;;;;;;9.64;100.00;95752.63;1010412;29;20021;-63
2021/12/30 01:47:26;;;;;;;3.53;0.70;;;;;;;9.71;100.00;95768.09;1007167;29;20442;-65
2021/12/30 01:47:57;;;;;;;0.40;0.40;;;;;;;9.68;100.00;95759.69;1007116;29;20032;-66
2021/12/30 01:48:28;;;;;;;0.50;0.50;;;;;;;9.62;100.00;95768.59;1003135;29;20141;-66
2021/12/30 01:48:58;;;;;;;0.45;0.45;;;;;;;9.63;100.00;95772.00;1006956;29;20288;-66
2021/12/30 01:49:29;;;;;;;0.47;0.47;;;;;;;9.67;100.00;95776.47;1014823;29;20024;-66
2021/12/30 01:49:59;;;;;;;0.50;0.40;;;;;;;9.65;100.00;95772.53;1010658;29;20419;-66
2021/12/30 01:50:29;;;;;;;1.17;0.68;;;;;;;9.59;100.00;95781.41;1010360;29;20028;-66
2021/12/30 01:51:00;;;;;;;0.47;0.47;;;;;;;9.61;100.00;95769.63;1011116;29;20025;-66
2021/12/30 01:51:30;;;;;;;0.45;0.45;;;;;;;9.59;100.00;95781.41;1010995;29;20088;-62
2021/12/30 01:52:01;;;;;;;0.50;0.50;;;;;;;9.64;100.00;95774.38;1006447;29;20021;-66
2021/12/30 01:52:31;;;;;;;0.73;0.43;;;;;;;9.66;100.00;95780.16;1011087;29;20080;-66
2021/12/30 01:53:03;;;;;;;0.47;0.43;;;;;;;9.61;100.00;95777.50;1010715;29;20059;-66
2021/12/30 01:53:34;;;;;;;0.50;0.47;;;;;;;9.59;100.00;95776.97;1011378;29;20029;-65
2021/12/30 01:54:05;;;;;;;0.50;0.50;;;;;;;9.53;100.00;95772.75;1015753;29;20616;-66
2021/12/30 01:54:35;;;;;;;1.27;0.40;;;;;;;9.56;100.00;95772.25;1012345;29;20054;-64
2021/12/30 01:55:06;;;;;;;1.00;0.65;;;;;;;9.50;100.00;95786.34;1014878;29;20263;-65
2021/12/30 01:55:37;;;;;;;0.60;0.60;;;;;;;9.51;100.00;95793.16;1015345;29;20027;-65
2021/12/30 01:56:08;;;;;;;0.55;0.55;;;;;;;9.55;100.00;95781.13;1011827;29;20025;-67
2021/12/30 01:56:38;;;;;;;0.40;0.40;;;;;;;9.59;100.00;95782.22;1011842;29;20249;-66
2021/12/30 01:57:09;;;;;;;1.35;0.70;;;;;;;9.40;100.00;95747.00;1015063;29;20781;-66
2021/12/30 01:57:39;;;;;;;2.28;0.40;;;;;;;9.64;100.00;95784.06;1011481;29;20052;-66
2021/12/30 01:58:11;;;;;;;0.50;0.50;;;;;;;9.60;100.00;95794.25;1011461;29;20088;-66
2021/12/30 01:58:42;;;;;;;1.42;0.50;;;;;;;9.58;100.00;95785.84;1011305;29;20009;-67
2021/12/30 01:59:12;;;;;;;0.45;0.45;;;;;;;9.53;100.00;95783.22;1008483;29;20265;-66
2021/12/30 01:59:44;;;;;;;0.65;0.40;;;;;;;9.64;100.00;95784.84;1011715;29;20024;-66
2021/12/30 02:00:16;;;;;;;0.80;0.35;;;;;;;9.64;100.00;95790.09;1014699;29;20020;-63
2021/12/30 02:00:47;;;;;;;0.30;0.30;;;;;;;9.64;100.00;95792.69;1015854;29;20267;-66
2021/12/30 02:01:17;;;;;;;0.35;0.35;;;;;;;9.65;100.00;95790.88;1011734;29;20329;-66
2021/12/30 02:01:53;;;;;;;0.43;0.43;;;;;;;9.67;100.00;95789.56;1008024;29;20258;-66
2021/12/30 02:02:23;;;;;;;1.35;0.60;;;;;;;9.64;100.00;95794.53;1007547;29;20017;-66
2021/12/30 02:02:54;;;;;;;0.38;0.30;;;;;;;9.65;100.00;95791.66;1004900;29;20266;-66
2021/12/30 02:03:24;;;;;;;1.15;0.43;;;;;;;9.63;100.00;95783.28;1008895;29;20020;-66
2021/12/30 02:03:55;;;;;;;0.57;0.40;;;;;;;9.66;100.00;95782.75;1009733;29;20499;-66
2021/12/30 02:04:26;;;;;;;0.65;0.50;;;;;;;9.63;100.00;95801.63;1012253;29;20028;-66
2021/12/30 02:04:56;;;;;;;0.30;0.30;;;;;;;9.56;100.00;95780.09;1008025;29;20021;-65
2021/12/30 02:05:28;;;;;;;0.45;0.45;;;;;;;9.59;100.00;95797.94;1008444;29;20025;-62
2021/12/30 02:05:58;;;;;;;0.63;0.43;;;;;;;9.65;100.00;95793.50;1011948;29;20017;-67
2021/12/30 02:06:29;;;;;;;0.35;0.35;;;;;;;9.66;100.00;95782.75;1011797;29;20269;-63
2021/12/30 02:06:59;;;;;;;0.40;0.40;;;;;;;9.67;100.00;95784.34;1014026;29;20081;-64
2021/12/30 02:07:29;;;;;;;0.40;0.40;;;;;;;9.60;100.00;95789.03;1015798;29;20487;-65
2021/12/30 02:08:00;;;;;;;2.30;0.50;;;;;;;9.67;100.00;95794.81;1015630;29;20062;-66
2021/12/30 02:08:30;;;;;;;0.82;0.40;;;;;;;9.65;100.00;95801.34;1015774;29;20516;-66
2021/12/30 02:09:01;;;;;;;0.90;0.35;;;;;;;9.61;100.00;95795.03;1019099;29;20027;-66
2021/12/30 02:09:31;;;;;;;0.50;0.50;;;;;;;9.58;100.00;95801.56;1019639;29;20030;-66
2021/12/30 02:10:03;;;;;;;1.40;0.30;;;;;;;9.52;100.00;95792.09;1019529;29;20075;-66
2021/12/30 02:10:34;;;;;;;0.40;0.40;;;;;;;9.50;100.00;95788.97;1018068;29;20512;-66
2021/12/30 02:11:04;;;;;;;0.40;0.40;;;;;;;9.55;100.00;95791.59;1011783;29;20261;-66
2021/12/30 02:11:35;;;;;;;0.70;0.57;;;;;;;9.50;100.00;95788.19;1012018;29;20020;-66
2021/12/30 02:12:06;;;;;;;0.77;0.50;;;;;;;9.47;100.00;95792.09;1015804;29;20076;-67
2021/12/30 02:12:37;;;;;;;2.58;0.35;;;;;;;9.54;100.00;95792.66;1011624;29;20025;-65
2021/12/30 02:13:08;;;;;;;0.43;0.40;;;;;;;9.54;100.00;95797.88;1011936;29;20063;-66
2021/12/30 02:13:39;;;;;;;0.65;0.43;;;;;;;9.51;100.00;95795.78;1004063;29;20058;-66
2021/12/30 02:14:09;;;;;;;0.45;0.45;;;;;;;9.49;100.00;95795.25;1008321;29;20863;-66
2021/12/30 02:14:40;;;;;;;0.65;0.60;;;;;;;9.49;100.00;95797.88;1007542;29;20089;-65
2021/12/30 02:15:11;;;;;;;0.52;0.40;;;;;;;9.47;100.00;95794.72;1011907;29;20029;-66
2021/12/30 02:15:42;;;;;;;0.55;0.30;;;;;;;9.51;100.00;95801.00;1015320;29;20541;-66
2021/12/30 02:16:15;;;;;;;1.30;0.30;;;;;;;9.44;100.00;95789.97;1016052;29;20264;-66
2021/12/30 02:16:45;;;;;;;0.40;0.40;;;;;;;9.36;100.00;95778.16;1012336;29;20040;-66
2021/12/30 02:17:16;;;;;;;0.50;0.50;;;;;;;9.51;100.00;95810.72;1011441;29;20268;-66
2021/12/30 02:17:48;;;;;;;0.55;0.50;;;;;;;9.45;100.00;95807.25;1011884;29;20057;-66
2021/12/30 02:18:19;;;;;;;0.50;0.50;;;;;;;9.50;100.00;95815.16;1011979;29;20021;-66
2021/12/30 02:18:49;;;;;;;0.38;0.38;;;;;;;9.54;100.00;95810.22;1015672;29;20312;-66
2021/12/30 02:19:20;;;;;;;0.70;0.50;;;;;;;9.52;100.00;95807.03;1015087;29;20039;-64
2021/12/30 02:19:50;;;;;;;0.57;0.50;;;;;;;9.50;100.00;95809.16;1015406;29;20027;-66
2021/12/30 02:20:53;;;;;;;1.95;0.40;;;;;;;9.50;100.00;95807.31;1022967;29;20380;-66
2021/12/30 02:21:24;;;;;;;0.40;0.30;;;;;;;9.53;100.00;95804.19;1018335;29;20020;-66
2021/12/30 02:21:54;;;;;;;0.47;0.30;;;;;;;9.50;100.00;95809.94;1019828;29;20350;-66
2021/12/30 02:22:24;;;;;;;0.30;0.30;;;;;;;9.42;100.00;95798.09;1017401;29;20036;-66
2021/12/30 02:22:55;;;;;;;0.40;0.40;;;;;;;9.55;100.00;95796.06;1014007;29;20036;-64
2021/12/30 02:23:30;;;;;;;0.52;0.52;;;;;;;9.63;100.00;95808.69;1013432;29;20036;-67
2021/12/30 02:24:00;;;;;;;0.40;0.30;;;;;;;9.50;100.00;95804.69;1012351;29;20176;-66
2021/12/30 02:24:31;;;;;;;1.00;0.65;;;;;;;9.57;100.00;95809.69;1018465;29;20347;-66
2021/12/30 02:25:04;;;;;;;0.57;0.38;;;;;;;9.57;100.00;95804.47;1014081;29;20067;-66
2021/12/30 02:25:34;;;;;;;0.50;0.50;;;;;;;9.54;100.00;95813.59;1017534;29;20028;-66
2021/12/30 02:26:13;;;;;;;0.30;0.30;;;;;;;9.51;100.00;95811.50;1015557;29;20272;-66
2021/12/30 02:26:43;;;;;;;0.40;0.40;;;;;;;9.55;100.00;95820.41;1011571;29;20104;-66
2021/12/30 02:27:14;;;;;;;0.30;0.30;;;;;;;9.56;100.00;95818.59;1011151;29;20967;-66
2021/12/30 02:27:47;;;;;;;0.40;0.40;;;;;;;9.53;100.00;95816.50;1014074;29;20066;-66
2021/12/30 02:28:19;;;;;;;0.30;0.30;;;;;;;9.52;100.00;95823.53;1019272;29;20038;-65